createdAt,value
2018-09-14T00:00:08.416Z,16.10
2018-09-14T00:02:43.000Z,16.10
2018-09-14T00:05:17.525Z,16.00
2018-09-14T00:07:52.031Z,16.00
2018-09-14T00:10:26.449Z,16.10
2018-09-14T00:13:00.860Z,16.20
2018-09-14T00:15:35.228Z,16.20
2018-09-14T00:18:09.589Z,15.90
2018-09-14T00:20:43.929Z,15.60
2018-09-14T00:23:18.355Z,15.60
2018-09-14T00:25:52.928Z,15.70
2018-09-14T00:28:27.287Z,15.90
2018-09-14T00:31:01.720Z,16.10
2018-09-14T00:33:36.251Z,16.10
2018-09-14T00:36:10.548Z,16.20
2018-09-14T00:38:45.368Z,16.30
2018-09-14T00:41:19.949Z,16.40
2018-09-14T00:43:54.315Z,16.00
2018-09-14T00:46:28.601Z,16.00
2018-09-14T00:49:03.112Z,16.00
2018-09-14T00:51:37.469Z,16.20
2018-09-14T00:54:11.812Z,16.30
2018-09-14T00:56:46.150Z,16.40
2018-09-14T00:59:20.524Z,16.50
2018-09-14T01:01:54.956Z,16.50
2018-09-14T01:04:29.428Z,16.40
2018-09-14T01:07:03.770Z,16.30
2018-09-14T01:09:38.037Z,16.50
2018-09-14T01:12:12.391Z,16.50
2018-09-14T01:14:46.695Z,16.30
2018-09-14T01:17:21.210Z,16.40
2018-09-14T01:19:55.599Z,16.60
2018-09-14T01:22:30.011Z,16.60
2018-09-14T01:25:04.508Z,16.60
2018-09-14T01:27:38.926Z,16.70
2018-09-14T01:30:13.387Z,16.70
2018-09-14T01:32:47.821Z,16.80
2018-09-14T01:35:27.688Z,16.90
2018-09-14T01:38:02.214Z,16.90
2018-09-14T01:40:36.671Z,17.00
2018-09-14T01:43:11.119Z,17.00
2018-09-14T01:45:45.597Z,17.00
2018-09-14T01:48:19.872Z,17.10
2018-09-14T01:50:54.515Z,17.10
2018-09-14T01:53:28.933Z,17.10
2018-09-14T01:56:03.453Z,17.10
2018-09-14T01:58:37.975Z,17.10
2018-09-14T02:01:12.407Z,17.10
2018-09-14T02:03:46.869Z,17.00
2018-09-14T02:06:21.760Z,17.00
2018-09-14T02:08:56.618Z,16.90
2018-09-14T02:11:30.948Z,16.70
2018-09-14T02:14:05.483Z,16.10
2018-09-14T02:16:39.811Z,15.90
2018-09-14T02:19:14.167Z,15.60
2018-09-14T02:21:48.483Z,15.50
2018-09-14T02:24:22.840Z,15.50
2018-09-14T02:26:57.406Z,15.60
2018-09-14T02:29:31.929Z,15.80
2018-09-14T02:32:06.983Z,15.80
2018-09-14T02:34:42.551Z,15.60
2018-09-14T02:37:17.093Z,15.50
2018-09-14T02:39:51.619Z,15.40
2018-09-14T02:42:26.185Z,15.50
2018-09-14T02:45:00.548Z,15.60
2018-09-14T02:47:35.013Z,15.70
2018-09-14T02:50:09.711Z,15.80
2018-09-14T02:52:44.134Z,15.80
2018-09-14T02:55:18.639Z,15.80
2018-09-14T02:57:53.014Z,15.70
2018-09-14T03:00:27.420Z,15.80
2018-09-14T03:03:01.911Z,15.80
2018-09-14T03:05:36.445Z,15.80
2018-09-14T03:08:11.020Z,15.80
2018-09-14T03:10:45.323Z,15.80
2018-09-14T03:13:19.645Z,15.70
2018-09-14T03:15:54.170Z,15.60
2018-09-14T03:18:28.488Z,15.60
2018-09-14T03:21:02.845Z,15.70
2018-09-14T03:23:37.365Z,15.60
2018-09-14T03:26:11.861Z,15.50
2018-09-14T03:28:46.209Z,15.70
2018-09-14T03:31:20.647Z,15.60
2018-09-14T03:33:55.255Z,15.50
2018-09-14T03:36:29.769Z,15.50
2018-09-14T03:39:05.458Z,15.50
2018-09-14T03:41:40.052Z,15.60
2018-09-14T03:44:14.666Z,15.70
2018-09-14T03:46:49.192Z,15.60
2018-09-14T03:49:23.702Z,15.70
2018-09-14T03:51:58.030Z,15.50
2018-09-14T03:54:32.561Z,15.60
2018-09-14T03:57:06.920Z,15.70
2018-09-14T03:59:41.278Z,15.70
2018-09-14T04:02:15.634Z,15.70
2018-09-14T04:04:49.958Z,15.60
2018-09-14T04:07:24.435Z,15.80
2018-09-14T04:09:58.791Z,15.70
2018-09-14T04:12:33.284Z,15.70
2018-09-14T04:15:07.726Z,15.80
2018-09-14T04:17:42.113Z,15.80
2018-09-14T04:20:16.372Z,15.90
2018-09-14T04:22:50.799Z,16.00
2018-09-14T04:25:25.295Z,16.00
2018-09-14T04:27:59.711Z,16.10
2018-09-14T04:30:34.021Z,16.00
2018-09-14T04:33:08.395Z,16.10
2018-09-14T04:35:42.839Z,16.10
2018-09-14T04:38:17.207Z,16.00
2018-09-14T04:40:51.494Z,16.10
2018-09-14T04:43:25.819Z,16.20
2018-09-14T04:46:00.266Z,16.30
2018-09-14T04:48:34.574Z,16.30
2018-09-14T04:51:08.896Z,16.20
2018-09-14T04:53:43.284Z,16.20
2018-09-14T04:56:17.581Z,16.30
2018-09-14T04:58:52.045Z,16.30
2018-09-14T05:01:26.436Z,16.30
2018-09-14T05:04:01.015Z,16.30
2018-09-14T05:06:35.400Z,16.30
2018-09-14T05:09:09.803Z,16.30
2018-09-14T05:11:44.110Z,16.30
2018-09-14T05:14:18.615Z,16.30
2018-09-14T05:16:53.166Z,16.30
2018-09-14T05:19:27.576Z,16.10
2018-09-14T05:22:02.121Z,16.10
2018-09-14T05:24:36.504Z,16.10
2018-09-14T05:27:10.952Z,16.10
2018-09-14T05:29:45.380Z,16.20
2018-09-14T05:32:19.824Z,16.10
2018-09-14T05:34:54.411Z,16.10
2018-09-14T05:37:28.724Z,16.10
2018-09-14T05:40:03.237Z,16.20
2018-09-14T05:42:37.888Z,16.20
2018-09-14T05:45:12.396Z,16.30
2018-09-14T05:47:46.691Z,16.30
2018-09-14T05:50:20.967Z,16.30
2018-09-14T05:52:55.838Z,16.30
2018-09-14T05:55:30.246Z,16.40
2018-09-14T05:58:06.347Z,16.40
2018-09-14T06:00:40.698Z,16.40
2018-09-14T06:03:15.035Z,16.40
2018-09-14T06:05:49.557Z,16.40
2018-09-14T06:08:24.011Z,16.40
2018-09-14T06:10:58.481Z,16.30
2018-09-14T06:13:32.779Z,16.20
2018-09-14T06:16:07.284Z,16.20
2018-09-14T06:18:41.685Z,16.20
2018-09-14T06:21:16.126Z,16.30
2018-09-14T06:23:50.554Z,16.40
2018-09-14T06:26:24.859Z,16.40
2018-09-14T06:28:59.299Z,16.30
2018-09-14T06:31:33.810Z,16.40
2018-09-14T06:34:08.329Z,16.30
2018-09-14T06:36:42.646Z,16.40
2018-09-14T06:39:17.194Z,16.40
2018-09-14T06:41:51.426Z,16.50
2018-09-14T06:44:25.925Z,16.50
2018-09-14T06:47:00.327Z,16.40
2018-09-14T06:49:34.741Z,16.30
2018-09-14T06:52:09.284Z,16.30
2018-09-14T06:54:43.570Z,16.30
2018-09-14T06:57:18.131Z,16.30
2018-09-14T06:59:52.516Z,16.40
2018-09-14T07:02:26.816Z,16.50
2018-09-14T07:05:01.167Z,16.50
2018-09-14T07:07:35.468Z,16.50
2018-09-14T07:10:09.790Z,16.30
2018-09-14T07:12:44.113Z,16.30
2018-09-14T07:15:18.372Z,16.10
2018-09-14T07:17:52.752Z,16.10
2018-09-14T07:20:27.062Z,16.30
2018-09-14T07:23:01.339Z,16.40
2018-09-14T07:25:35.686Z,16.30
2018-09-14T07:28:10.182Z,16.40
2018-09-14T07:30:44.583Z,16.50
2018-09-14T07:33:19.096Z,16.60
2018-09-14T07:35:53.477Z,16.70
2018-09-14T07:38:27.887Z,16.50
2018-09-14T07:41:02.307Z,16.60
2018-09-14T07:43:36.706Z,16.50
2018-09-14T07:46:11.072Z,16.70
2018-09-14T07:48:45.371Z,16.80
2018-09-14T07:51:19.684Z,16.80
2018-09-14T07:53:54.108Z,16.80
2018-09-14T07:56:28.399Z,16.90
2018-09-14T07:59:02.899Z,16.90
2018-09-14T08:01:37.379Z,17.00
2018-09-14T08:04:11.842Z,16.90
2018-09-14T08:06:46.262Z,16.90
2018-09-14T08:09:20.538Z,16.80
2018-09-14T08:11:54.850Z,16.80
2018-09-14T08:14:29.334Z,16.90
2018-09-14T08:17:03.641Z,17.00
2018-09-14T08:19:38.127Z,16.90
2018-09-14T08:22:12.506Z,16.90
2018-09-14T08:24:46.954Z,17.00
2018-09-14T08:27:21.454Z,17.10
2018-09-14T08:29:55.793Z,17.10
2018-09-14T08:32:30.327Z,17.20
2018-09-14T08:35:04.726Z,17.20
2018-09-14T08:37:38.999Z,17.20
2018-09-14T08:40:13.307Z,17.10
2018-09-14T08:42:47.705Z,17.20
2018-09-14T08:45:22.045Z,17.40
2018-09-14T08:47:56.435Z,17.50
2018-09-14T08:50:30.844Z,17.50
2018-09-14T08:53:05.111Z,17.60
2018-09-14T08:55:39.499Z,17.70
2018-09-14T08:58:14.000Z,17.80
2018-09-14T09:00:48.414Z,17.60
2018-09-14T09:03:22.663Z,17.50
2018-09-14T09:05:57.006Z,17.70
2018-09-14T09:08:31.553Z,17.70
2018-09-14T09:11:06.002Z,17.70
2018-09-14T09:13:40.433Z,17.80
2018-09-14T09:16:14.724Z,17.80
2018-09-14T09:18:49.020Z,17.70
2018-09-14T09:21:23.401Z,17.80
2018-09-14T09:23:58.410Z,17.80
2018-09-14T09:26:32.759Z,17.90
2018-09-14T09:29:07.248Z,17.80
2018-09-14T09:31:41.662Z,17.80
2018-09-14T09:34:16.607Z,18.00
2018-09-14T09:36:51.124Z,18.10
2018-09-14T09:39:25.428Z,17.90
2018-09-14T09:41:59.985Z,17.90
2018-09-14T09:44:34.391Z,17.90
2018-09-14T09:47:08.932Z,18.10
2018-09-14T09:49:43.329Z,18.40
2018-09-14T09:52:17.815Z,18.10
2018-09-14T09:54:52.148Z,18.20
2018-09-14T09:57:26.599Z,18.00
2018-09-14T10:00:01.021Z,18.00
2018-09-14T10:02:38.651Z,18.10
2018-09-14T10:05:18.618Z,18.30
2018-09-14T10:07:53.032Z,18.30
2018-09-14T10:10:27.597Z,18.20
2018-09-14T10:13:02.039Z,18.30
2018-09-14T10:15:36.519Z,18.30
2018-09-14T10:18:10.977Z,18.20
2018-09-14T10:20:45.527Z,18.10
2018-09-14T10:23:19.935Z,18.20
2018-09-14T10:25:54.478Z,18.20
2018-09-14T10:28:28.841Z,18.10
2018-09-14T10:31:03.175Z,18.10
2018-09-14T10:33:37.581Z,18.10
2018-09-14T10:36:11.994Z,18.20
2018-09-14T10:38:46.294Z,18.50
2018-09-14T10:41:20.627Z,18.80
2018-09-14T10:43:54.969Z,18.60
2018-09-14T10:46:29.476Z,18.70
2018-09-14T10:49:03.836Z,19.10
2018-09-14T10:51:38.436Z,19.30
2018-09-14T10:54:13.041Z,19.60
2018-09-14T10:56:47.412Z,19.80
2018-09-14T10:59:21.720Z,19.50
2018-09-14T11:01:56.083Z,19.70
2018-09-14T11:04:30.410Z,19.60
2018-09-14T11:07:04.934Z,19.30
2018-09-14T11:09:39.451Z,19.40
2018-09-14T11:12:13.785Z,19.50
2018-09-14T11:14:48.208Z,19.40
2018-09-14T11:17:22.571Z,19.30
2018-09-14T11:19:57.111Z,19.30
2018-09-14T11:22:31.455Z,19.40
2018-09-14T11:25:06.105Z,19.50
2018-09-14T11:27:40.489Z,19.50
2018-09-14T11:30:14.787Z,19.50
2018-09-14T11:32:49.076Z,19.60
2018-09-14T11:35:23.618Z,19.50
2018-09-14T11:37:58.141Z,19.40
2018-09-14T11:40:32.484Z,19.20
2018-09-14T11:43:06.960Z,19.10
2018-09-14T11:45:41.997Z,19.30
2018-09-14T11:48:16.434Z,19.30
2018-09-14T11:50:50.920Z,19.40
2018-09-14T11:53:25.474Z,19.60
2018-09-14T11:55:59.968Z,19.90
2018-09-14T11:58:34.400Z,20.20
2018-09-14T12:01:09.697Z,20.00
2018-09-14T12:03:44.237Z,20.30
2018-09-14T12:06:18.743Z,20.50
2018-09-14T12:08:53.270Z,20.50
2018-09-14T12:11:27.836Z,20.50
2018-09-14T12:14:02.233Z,20.30
2018-09-14T12:16:36.647Z,20.20
2018-09-14T12:19:11.147Z,20.20
2018-09-14T12:21:45.583Z,20.10
2018-09-14T12:24:19.920Z,19.70
2018-09-14T12:26:54.348Z,19.90
2018-09-14T12:29:28.805Z,20.20
2018-09-14T12:32:03.136Z,20.20
2018-09-14T12:34:38.267Z,20.00
2018-09-14T12:37:12.750Z,19.70
2018-09-14T12:39:47.377Z,19.60
2018-09-14T12:42:21.875Z,19.70
2018-09-14T12:44:56.379Z,19.70
2018-09-14T12:47:30.730Z,19.90
2018-09-14T12:50:05.235Z,19.90
2018-09-14T12:52:39.715Z,19.80
2018-09-14T12:55:14.244Z,19.90
2018-09-14T12:57:48.774Z,20.00
2018-09-14T13:00:23.208Z,20.20
2018-09-14T13:02:57.571Z,20.10
2018-09-14T13:05:31.871Z,20.10
2018-09-14T13:08:06.196Z,19.90
2018-09-14T13:10:40.551Z,19.80
2018-09-14T13:13:14.982Z,19.70
2018-09-14T13:15:49.405Z,19.70
2018-09-14T13:18:23.811Z,19.90
2018-09-14T13:20:58.019Z,20.10
2018-09-14T13:23:32.354Z,20.40
2018-09-14T13:26:06.680Z,20.70
2018-09-14T13:28:41.075Z,20.40
2018-09-14T13:31:15.554Z,20.40
2018-09-14T13:33:50.011Z,20.60
2018-09-14T13:36:24.354Z,20.60
2018-09-14T13:38:58.892Z,20.50
2018-09-14T13:41:33.187Z,20.40
2018-09-14T13:44:07.848Z,20.50
2018-09-14T13:46:42.488Z,20.60
2018-09-14T13:49:16.936Z,20.70
2018-09-14T13:51:51.622Z,20.60
2018-09-14T13:54:25.981Z,20.70
2018-09-14T13:57:00.371Z,20.80
2018-09-14T13:59:34.860Z,20.60
2018-09-14T14:02:09.380Z,20.70
2018-09-14T14:04:43.827Z,20.80
2018-09-14T14:07:18.232Z,20.80
2018-09-14T14:09:52.650Z,20.80
2018-09-14T14:12:27.024Z,20.50
2018-09-14T14:15:01.369Z,20.50
2018-09-14T14:17:35.874Z,20.80
2018-09-14T14:20:10.121Z,20.90
2018-09-14T14:22:44.708Z,21.20
2018-09-14T14:25:19.160Z,21.00
2018-09-14T14:27:53.552Z,21.30
2018-09-14T14:30:27.966Z,21.50
2018-09-14T14:33:02.535Z,21.50
2018-09-14T14:35:36.883Z,21.30
2018-09-14T14:38:11.401Z,21.50
2018-09-14T14:40:45.971Z,21.60
2018-09-14T14:43:20.395Z,21.40
2018-09-14T14:45:54.842Z,21.10
2018-09-14T14:48:29.460Z,20.80
2018-09-14T14:51:03.796Z,20.60
2018-09-14T14:53:38.078Z,20.40
2018-09-14T14:56:12.467Z,20.40
2018-09-14T14:58:46.923Z,20.40
2018-09-14T15:01:21.456Z,20.50
2018-09-14T15:03:55.851Z,20.60
2018-09-14T15:06:30.375Z,20.60
2018-09-14T15:09:07.517Z,20.60
2018-09-14T15:11:42.007Z,20.80
2018-09-14T15:14:16.445Z,21.00
2018-09-14T15:16:51.010Z,20.90
2018-09-14T15:19:25.421Z,21.00
2018-09-14T15:21:59.989Z,20.90
2018-09-14T15:24:34.371Z,20.40
2018-09-14T15:27:08.792Z,20.40
2018-09-14T15:29:43.229Z,20.70
2018-09-14T15:32:17.609Z,20.60
2018-09-14T15:34:52.110Z,20.30
2018-09-14T15:37:26.492Z,20.40
2018-09-14T15:40:00.999Z,20.70
2018-09-14T15:42:35.336Z,20.80
2018-09-14T15:45:09.633Z,21.00
2018-09-14T15:47:43.954Z,21.30
2018-09-14T15:50:18.297Z,21.30
2018-09-14T15:52:52.702Z,21.30
2018-09-14T15:55:27.111Z,21.00
2018-09-14T15:58:01.529Z,20.90
2018-09-14T16:00:36.136Z,21.00
2018-09-14T16:03:10.464Z,21.20
2018-09-14T16:05:45.015Z,21.40
2018-09-14T16:08:19.569Z,21.50
2018-09-14T16:10:53.948Z,21.80
2018-09-14T16:13:28.296Z,21.70
2018-09-14T16:16:02.903Z,21.60
2018-09-14T16:18:37.308Z,21.70
2018-09-14T16:21:11.740Z,20.90
2018-09-14T16:23:46.983Z,20.90
2018-09-14T16:26:22.266Z,20.90
2018-09-14T16:28:56.703Z,21.00
2018-09-14T16:31:31.203Z,21.10
2018-09-14T16:34:05.692Z,21.30
2018-09-14T16:36:40.364Z,21.40
2018-09-14T16:39:14.824Z,21.40
2018-09-14T16:41:49.400Z,21.40
2018-09-14T16:44:23.816Z,21.50
2018-09-14T16:46:58.478Z,21.50
2018-09-14T16:49:32.907Z,21.40
2018-09-14T16:52:07.444Z,21.40
2018-09-14T16:54:41.850Z,21.30
2018-09-14T16:57:16.176Z,21.20
2018-09-14T16:59:50.705Z,21.10
2018-09-14T17:02:25.199Z,21.00
2018-09-14T17:04:59.652Z,20.90
2018-09-14T17:07:34.107Z,20.80
2018-09-14T17:10:08.481Z,20.60
2018-09-14T17:12:42.822Z,20.50
2018-09-14T17:15:17.328Z,20.40
2018-09-14T17:17:51.735Z,20.30
2018-09-14T17:20:26.265Z,20.20
2018-09-14T17:23:00.670Z,20.10
2018-09-14T17:25:34.995Z,20.10
2018-09-14T17:28:09.451Z,20.10
2018-09-14T17:30:43.763Z,20.10
2018-09-14T17:33:18.284Z,20.00
2018-09-14T17:35:52.632Z,20.00
2018-09-14T17:38:27.275Z,19.90
2018-09-14T17:41:01.844Z,19.80
2018-09-14T17:43:36.324Z,19.80
2018-09-14T17:46:10.764Z,19.60
2018-09-14T17:48:45.283Z,19.50
2018-09-14T17:51:19.716Z,19.50
2018-09-14T17:53:54.103Z,19.40
2018-09-14T17:56:28.712Z,19.00
2018-09-14T17:59:03.157Z,18.60
2018-09-14T18:01:37.631Z,18.60
2018-09-14T18:04:11.981Z,18.70
2018-09-14T18:06:46.272Z,18.70
2018-09-14T18:09:20.584Z,18.70
2018-09-14T18:11:54.860Z,18.70
2018-09-14T18:14:29.318Z,18.70
2018-09-14T18:17:03.952Z,18.80
2018-09-14T18:19:38.446Z,18.80
2018-09-14T18:22:13.769Z,18.70
2018-09-14T18:24:48.321Z,18.70
2018-09-14T18:27:22.907Z,18.70
2018-09-14T18:29:57.164Z,18.20
2018-09-14T18:32:31.597Z,17.70
2018-09-14T18:35:06.064Z,17.60
2018-09-14T18:37:40.396Z,17.80
2018-09-14T18:40:14.916Z,18.00
2018-09-14T18:42:49.500Z,17.80
2018-09-14T18:45:24.154Z,17.80
2018-09-14T18:47:58.627Z,17.90
2018-09-14T18:50:33.088Z,18.00
2018-09-14T18:53:07.671Z,18.10
2018-09-14T18:55:42.193Z,18.10
2018-09-14T18:58:16.798Z,18.00
2018-09-14T19:00:51.215Z,18.10
2018-09-14T19:03:25.655Z,18.00
2018-09-14T19:05:59.943Z,18.10
2018-09-14T19:08:34.398Z,18.10
2018-09-14T19:11:08.794Z,18.10
2018-09-14T19:13:43.302Z,18.10
2018-09-14T19:16:17.808Z,18.10
2018-09-14T19:18:52.351Z,17.90
2018-09-14T19:21:27.171Z,17.90
2018-09-14T19:24:01.874Z,17.80
2018-09-14T19:26:36.472Z,17.90
2018-09-14T19:29:11.083Z,17.90
2018-09-14T19:31:45.465Z,18.00
2018-09-14T19:34:20.072Z,17.90
2018-09-14T19:36:54.400Z,17.90
2018-09-14T19:39:28.725Z,17.90
2018-09-14T19:42:03.080Z,17.80
2018-09-14T19:44:37.631Z,17.80
2018-09-14T19:47:11.863Z,17.80
2018-09-14T19:49:46.259Z,17.80
2018-09-14T19:52:20.715Z,17.90
2018-09-14T19:54:55.128Z,17.80
2018-09-14T19:57:29.533Z,17.80
2018-09-14T20:00:05.243Z,17.80
2018-09-14T20:02:39.616Z,17.80
2018-09-14T20:05:14.152Z,17.70
2018-09-14T20:07:48.568Z,17.30
2018-09-14T20:10:22.873Z,17.10
2018-09-14T20:12:57.438Z,17.00
2018-09-14T20:15:31.839Z,17.10
2018-09-14T20:18:06.278Z,17.20
2018-09-14T20:20:40.895Z,17.10
2018-09-14T20:23:15.432Z,17.10
2018-09-14T20:25:49.922Z,17.20
2018-09-14T20:28:24.315Z,17.20
2018-09-14T20:30:58.963Z,17.20
2018-09-14T20:33:33.518Z,17.20
2018-09-14T20:36:07.808Z,17.20
2018-09-14T20:38:42.383Z,17.20
2018-09-14T20:41:16.848Z,17.20
2018-09-14T20:43:51.148Z,17.30
2018-09-14T20:46:25.616Z,17.30
2018-09-14T20:49:00.212Z,17.30
2018-09-14T20:51:34.716Z,17.20
2018-09-14T20:54:09.195Z,17.00
2018-09-14T20:56:43.673Z,16.60
2018-09-14T20:59:18.300Z,16.50
2018-09-14T21:01:52.932Z,16.50
2018-09-14T21:04:27.348Z,16.50
2018-09-14T21:07:01.927Z,16.70
2018-09-14T21:09:36.442Z,16.80
2018-09-14T21:12:10.804Z,16.70
2018-09-14T21:14:45.112Z,16.60
2018-09-14T21:17:19.722Z,16.60
2018-09-14T21:19:54.068Z,16.40
2018-09-14T21:22:28.474Z,16.30
2018-09-14T21:25:03.118Z,16.30
2018-09-14T21:27:37.554Z,16.20
2018-09-14T21:30:12.041Z,16.30
2018-09-14T21:32:46.567Z,16.40
2018-09-14T21:35:21.049Z,16.40
2018-09-14T21:37:55.557Z,16.40
2018-09-14T21:40:30.093Z,16.30
2018-09-14T21:43:04.791Z,16.30
2018-09-14T21:45:39.207Z,16.30
2018-09-14T21:48:13.782Z,16.20
2018-09-14T21:50:48.300Z,16.20
2018-09-14T21:53:22.647Z,16.20
2018-09-14T21:55:57.090Z,16.20
2018-09-14T21:58:31.683Z,16.20
2018-09-14T22:01:10.470Z,16.10
2018-09-14T22:03:45.163Z,16.10
2018-09-14T22:06:19.745Z,16.00
2018-09-14T22:08:54.758Z,16.00
2018-09-14T22:11:29.396Z,16.00
2018-09-14T22:14:03.972Z,15.90
2018-09-14T22:16:38.363Z,15.90
2018-09-14T22:19:12.827Z,16.00
2018-09-14T22:21:47.361Z,16.00
2018-09-14T22:24:21.723Z,15.80
2018-09-14T22:26:56.120Z,15.70
2018-09-14T22:29:30.466Z,15.70
2018-09-14T22:32:04.839Z,15.70
2018-09-14T22:34:39.283Z,15.80
2018-09-14T22:37:13.723Z,15.90
2018-09-14T22:39:48.039Z,15.90
2018-09-14T22:42:22.541Z,15.80
2018-09-14T22:44:56.814Z,15.60
2018-09-14T22:47:31.219Z,15.50
2018-09-14T22:50:05.829Z,15.60
2018-09-14T22:52:40.151Z,15.60
2018-09-14T22:55:14.662Z,15.60
2018-09-14T22:57:49.044Z,15.70
2018-09-14T23:00:28.933Z,15.80
2018-09-14T23:03:03.456Z,15.80
2018-09-14T23:05:37.976Z,15.70
2018-09-14T23:08:12.335Z,15.60
2018-09-14T23:10:46.893Z,15.70
2018-09-14T23:13:21.363Z,15.80
2018-09-14T23:16:00.608Z,15.80
2018-09-14T23:18:35.054Z,15.80
2018-09-14T23:21:09.620Z,15.80
2018-09-14T23:23:44.100Z,15.90
2018-09-14T23:26:20.894Z,15.90
2018-09-14T23:28:55.211Z,15.80
2018-09-14T23:31:29.739Z,15.70
2018-09-14T23:34:04.483Z,15.50
2018-09-14T23:36:38.864Z,15.30
2018-09-14T23:39:13.203Z,15.30
2018-09-14T23:41:47.496Z,15.40
2018-09-14T23:44:21.850Z,15.50
2018-09-14T23:46:56.392Z,15.60
2018-09-14T23:49:30.905Z,15.50
2018-09-14T23:52:05.416Z,15.40
2018-09-14T23:54:39.738Z,15.40
2018-09-14T23:57:14.407Z,15.50
2018-09-14T23:59:48.788Z,15.50
